sensor_id;sensor_type;location;lat;lon;timestamp;temperature;humidity
72320;SHT30;60269;52.502;16.732;2022-09-17T00:01:29;9.42;83.67
72320;SHT30;60269;52.502;16.732;2022-09-17T00:05:28;9.48;83.08
72320;SHT30;60269;52.502;16.732;2022-09-17T00:09:28;9.44;83.35
72320;SHT30;60269;52.502;16.732;2022-09-17T00:13:07;9.32;83.79
72320;SHT30;60269;52.502;16.732;2022-09-17T00:17:06;9.35;83.44
72320;SHT30;60269;52.502;16.732;2022-09-17T00:20:45;9.37;83.33
72320;SHT30;60269;52.502;16.732;2022-09-17T00:24:38;9.42;82.50
72320;SHT30;60269;52.502;16.732;2022-09-17T00:28:23;9.48;82.30
72320;SHT30;60269;52.502;16.732;2022-09-17T00:32:16;9.52;82.19
72320;SHT30;60269;52.502;16.732;2022-09-17T00:35:59;9.72;81.57
72320;SHT30;60269;52.502;16.732;2022-09-17T00:39:51;9.87;80.83
72320;SHT30;60269;52.502;16.732;2022-09-17T00:43:42;9.95;80.81
72320;SHT30;60269;52.502;16.732;2022-09-17T00:47:37;10.07;80.13
72320;SHT30;60269;52.502;16.732;2022-09-17T00:51:32;10.14;80.45
72320;SHT30;60269;52.502;16.732;2022-09-17T00:55:30;10.17;80.20
72320;SHT30;60269;52.502;16.732;2022-09-17T00:59:19;10.27;80.45
72320;SHT30;60269;52.502;16.732;2022-09-17T01:03:11;10.21;82.07
72320;SHT30;60269;52.502;16.732;2022-09-17T01:07:09;10.10;83.45
72320;SHT30;60269;52.502;16.732;2022-09-17T01:15:01;9.92;86.40
72320;SHT30;60269;52.502;16.732;2022-09-17T01:23:29;9.86;87.68
72320;SHT30;60269;52.502;16.732;2022-09-17T01:31:35;9.83;88.69
72320;SHT30;60269;52.502;16.732;2022-09-17T01:35:35;9.79;89.18
72320;SHT30;60269;52.502;16.732;2022-09-17T01:39:41;9.76;89.81
72320;SHT30;60269;52.502;16.732;2022-09-17T01:43:51;9.62;91.30
72320;SHT30;60269;52.502;16.732;2022-09-17T01:47:41;9.52;92.59
72320;SHT30;60269;52.502;16.732;2022-09-17T01:51:44;9.47;93.34
72320;SHT30;60269;52.502;16.732;2022-09-17T01:55:45;9.45;93.55
72320;SHT30;60269;52.502;16.732;2022-09-17T01:59:30;9.45;93.88
72320;SHT30;60269;52.502;16.732;2022-09-17T02:04:03;9.48;94.43
72320;SHT30;60269;52.502;16.732;2022-09-17T02:07:51;9.45;94.60
72320;SHT30;60269;52.502;16.732;2022-09-17T02:11:50;9.42;94.83
72320;SHT30;60269;52.502;16.732;2022-09-17T02:15:37;9.47;94.75
72320;SHT30;60269;52.502;16.732;2022-09-17T02:19:39;9.45;95.18
72320;SHT30;60269;52.502;16.732;2022-09-17T02:23:26;9.42;95.72
72320;SHT30;60269;52.502;16.732;2022-09-17T02:31:28;9.44;96.35
72320;SHT30;60269;52.502;16.732;2022-09-17T02:35:29;9.48;96.23
72320;SHT30;60269;52.502;16.732;2022-09-17T02:39:08;9.54;96.38
72320;SHT30;60269;52.502;16.732;2022-09-17T02:43:27;9.49;96.35
72320;SHT30;60269;52.502;16.732;2022-09-17T02:47:45;9.52;96.74
72320;SHT30;60269;52.502;16.732;2022-09-17T02:56:00;9.54;96.91
72320;SHT30;60269;52.502;16.732;2022-09-17T03:00:08;9.55;96.76
72320;SHT30;60269;52.502;16.732;2022-09-17T03:04:11;9.56;96.74
72320;SHT30;60269;52.502;16.732;2022-09-17T03:07:51;9.61;96.58
72320;SHT30;60269;52.502;16.732;2022-09-17T03:11:52;9.62;96.67
72320;SHT30;60269;52.502;16.732;2022-09-17T03:15:30;9.63;96.69
72320;SHT30;60269;52.502;16.732;2022-09-17T03:19:22;9.68;96.78
72320;SHT30;60269;52.502;16.732;2022-09-17T03:23:00;9.71;96.68
72320;SHT30;60269;52.502;16.732;2022-09-17T03:26:59;9.72;96.74
72320;SHT30;60269;52.502;16.732;2022-09-17T03:30:58;9.74;96.56
72320;SHT30;60269;52.502;16.732;2022-09-17T03:34:57;9.75;96.47
72320;SHT30;60269;52.502;16.732;2022-09-17T03:38:35;9.79;96.15
72320;SHT30;60269;52.502;16.732;2022-09-17T03:42:34;9.79;96.30
72320;SHT30;60269;52.502;16.732;2022-09-17T03:46:12;9.81;96.31
72320;SHT30;60269;52.502;16.732;2022-09-17T03:50:05;9.83;96.11
72320;SHT30;60269;52.502;16.732;2022-09-17T03:53:43;9.81;96.38
72320;SHT30;60269;52.502;16.732;2022-09-17T03:57:42;9.82;96.04
72320;SHT30;60269;52.502;16.732;2022-09-17T04:01:20;9.61;96.33
72320;SHT30;60269;52.502;16.732;2022-09-17T04:05:12;9.54;96.90
72320;SHT30;60269;52.502;16.732;2022-09-17T04:08:50;9.69;96.65
72320;SHT30;60269;52.502;16.732;2022-09-17T04:12:49;9.75;96.10
72320;SHT30;60269;52.502;16.732;2022-09-17T04:16:27;9.75;95.90
72320;SHT30;60269;52.502;16.732;2022-09-17T04:20:19;9.76;95.82
72320;SHT30;60269;52.502;16.732;2022-09-17T04:23:57;9.79;95.67
72320;SHT30;60269;52.502;16.732;2022-09-17T04:27:56;9.83;95.47
72320;SHT30;60269;52.502;16.732;2022-09-17T04:31:55;9.76;95.65
72320;SHT30;60269;52.502;16.732;2022-09-17T04:35:54;9.78;95.47
72320;SHT30;60269;52.502;16.732;2022-09-17T04:39:32;9.74;95.57
72320;SHT30;60269;52.502;16.732;2022-09-17T04:43:31;9.75;95.60
72320;SHT30;60269;52.502;16.732;2022-09-17T04:47:09;9.78;95.57
72320;SHT30;60269;52.502;16.732;2022-09-17T04:51:01;9.62;95.80
72320;SHT30;60269;52.502;16.732;2022-09-17T04:54:39;9.39;96.44
72320;SHT30;60269;52.502;16.732;2022-09-17T04:58:42;9.26;96.81
72320;SHT30;60269;52.502;16.732;2022-09-17T05:02:20;9.23;97.11
72320;SHT30;60269;52.502;16.732;2022-09-17T05:06:12;9.17;97.31
72320;SHT30;60269;52.502;16.732;2022-09-17T05:09:50;9.21;97.32
72320;SHT30;60269;52.502;16.732;2022-09-17T05:13:49;9.28;97.13
72320;SHT30;60269;52.502;16.732;2022-09-17T05:17:27;9.27;96.98
72320;SHT30;60269;52.502;16.732;2022-09-17T05:21:19;9.38;96.44
72320;SHT30;60269;52.502;16.732;2022-09-17T05:24:59;9.69;96.01
72320;SHT30;60269;52.502;16.732;2022-09-17T05:28:58;9.97;94.82
72320;SHT30;60269;52.502;16.732;2022-09-17T05:33:02;10.13;94.26
72320;SHT30;60269;52.502;16.732;2022-09-17T05:37:01;10.24;93.23
72320;SHT30;60269;52.502;16.732;2022-09-17T05:40:39;10.32;92.70
72320;SHT30;60269;52.502;16.732;2022-09-17T05:44:39;10.30;91.56
72320;SHT30;60269;52.502;16.732;2022-09-17T05:48:17;10.38;90.83
72320;SHT30;60269;52.502;16.732;2022-09-17T05:52:09;10.41;90.32
72320;SHT30;60269;52.502;16.732;2022-09-17T05:55:47;10.45;89.95
72320;SHT30;60269;52.502;16.732;2022-09-17T05:59:46;10.51;90.11
72320;SHT30;60269;52.502;16.732;2022-09-17T06:03:24;10.54;89.62
72320;SHT30;60269;52.502;16.732;2022-09-17T06:07:16;10.54;89.83
72320;SHT30;60269;52.502;16.732;2022-09-17T06:10:54;10.60;90.19
72320;SHT30;60269;52.502;16.732;2022-09-17T06:14:53;10.71;90.05
72320;SHT30;60269;52.502;16.732;2022-09-17T06:18:31;10.75;89.84
72320;SHT30;60269;52.502;16.732;2022-09-17T06:22:23;11.01;88.63
72320;SHT30;60269;52.502;16.732;2022-09-17T06:26:03;11.02;88.52
72320;SHT30;60269;52.502;16.732;2022-09-17T06:30:03;11.10;88.56
72320;SHT30;60269;52.502;16.732;2022-09-17T06:34:05;11.13;88.83
72320;SHT30;60269;52.502;16.732;2022-09-17T06:38:12;11.06;89.47
72320;SHT30;60269;52.502;16.732;2022-09-17T06:42:11;11.12;89.47
72320;SHT30;60269;52.502;16.732;2022-09-17T06:45:58;11.09;90.12
72320;SHT30;60269;52.502;16.732;2022-09-17T06:49:50;11.18;90.03
72320;SHT30;60269;52.502;16.732;2022-09-17T06:53:35;11.32;89.95
72320;SHT30;60269;52.502;16.732;2022-09-17T06:57:27;11.27;90.48
72320;SHT30;60269;52.502;16.732;2022-09-17T07:01:12;11.29;91.22
72320;SHT30;60269;52.502;16.732;2022-09-17T07:05:04;11.34;91.58
72320;SHT30;60269;52.502;16.732;2022-09-17T07:08:42;11.29;92.23
72320;SHT30;60269;52.502;16.732;2022-09-17T07:12:39;11.32;92.26
72320;SHT30;60269;52.502;16.732;2022-09-17T07:16:27;11.37;92.08
72320;SHT30;60269;52.502;16.732;2022-09-17T07:20:20;11.40;91.88
72320;SHT30;60269;52.502;16.732;2022-09-17T07:24:00;11.44;91.70
72320;SHT30;60269;52.502;16.732;2022-09-17T07:27:52;11.47;91.74
72320;SHT30;60269;52.502;16.732;2022-09-17T07:31:37;11.57;91.12
72320;SHT30;60269;52.502;16.732;2022-09-17T07:35:29;11.67;91.24
72320;SHT30;60269;52.502;16.732;2022-09-17T07:39:07;11.75;90.71
72320;SHT30;60269;52.502;16.732;2022-09-17T07:43:01;12.01;90.30
72320;SHT30;60269;52.502;16.732;2022-09-17T07:46:49;12.24;89.39
72320;SHT30;60269;52.502;16.732;2022-09-17T07:50:41;12.53;88.30
72320;SHT30;60269;52.502;16.732;2022-09-17T07:54:19;12.77;87.11
72320;SHT30;60269;52.502;16.732;2022-09-17T07:58:11;13.11;85.79
72320;SHT30;60269;52.502;16.732;2022-09-17T08:01:56;13.41;84.53
72320;SHT30;60269;52.502;16.732;2022-09-17T08:05:48;13.22;84.91
72320;SHT30;60269;52.502;16.732;2022-09-17T08:09:26;13.21;84.89
72320;SHT30;60269;52.502;16.732;2022-09-17T08:13:18;13.35;84.66
72320;SHT30;60269;52.502;16.732;2022-09-17T08:17:06;13.32;84.27
72320;SHT30;60269;52.502;16.732;2022-09-17T08:20:59;13.77;83.67
72320;SHT30;60269;52.502;16.732;2022-09-17T08:24:37;14.00;82.08
72320;SHT30;60269;52.502;16.732;2022-09-17T08:28:30;14.09;81.63
72320;SHT30;60269;52.502;16.732;2022-09-17T08:32:15;14.48;79.91
72320;SHT30;60269;52.502;16.732;2022-09-17T08:36:10;14.54;79.37
72320;SHT30;60269;52.502;16.732;2022-09-17T08:39:49;14.37;79.54
72320;SHT30;60269;52.502;16.732;2022-09-17T08:43:55;13.96;80.41
72320;SHT30;60269;52.502;16.732;2022-09-17T08:47:42;13.94;81.01
72320;SHT30;60269;52.502;16.732;2022-09-17T08:55:49;13.91;81.46
72320;SHT30;60269;52.502;16.732;2022-09-17T08:59:54;14.09;80.25
72320;SHT30;60269;52.502;16.732;2022-09-17T09:04:07;14.09;79.90
72320;SHT30;60269;52.502;16.732;2022-09-17T09:08:05;14.01;79.35
72320;SHT30;60269;52.502;16.732;2022-09-17T09:11:53;13.90;80.50
72320;SHT30;60269;52.502;16.732;2022-09-17T09:15:52;14.13;79.41
72320;SHT30;60269;52.502;16.732;2022-09-17T09:19:43;15.50;75.76
72320;SHT30;60269;52.502;16.732;2022-09-17T09:23:46;15.43;75.61
72320;SHT30;60269;52.502;16.732;2022-09-17T09:35:58;16.96;68.52
72320;SHT30;60269;52.502;16.732;2022-09-17T09:39:44;17.40;66.14
72320;SHT30;60269;52.502;16.732;2022-09-17T09:43:41;16.80;67.58
72320;SHT30;60269;52.502;16.732;2022-09-17T09:51:33;17.32;64.89
72320;SHT30;60269;52.502;16.732;2022-09-17T09:59:10;16.83;65.50
72320;SHT30;60269;52.502;16.732;2022-09-17T10:03:14;17.01;63.73
72320;SHT30;60269;52.502;16.732;2022-09-17T10:07:00;16.61;64.28
72320;SHT30;60269;52.502;16.732;2022-09-17T10:10:58;16.67;64.93
72320;SHT30;60269;52.502;16.732;2022-09-17T10:14:38;17.16;64.28
72320;SHT30;60269;52.502;16.732;2022-09-17T10:18:37;18.14;61.05
72320;SHT30;60269;52.502;16.732;2022-09-17T10:22:45;18.42;58.70
72320;SHT30;60269;52.502;16.732;2022-09-17T10:26:26;19.21;55.63
72320;SHT30;60269;52.502;16.732;2022-09-17T10:30:25;18.49;56.83
72320;SHT30;60269;52.502;16.732;2022-09-17T10:34:28;19.21;55.21
72320;SHT30;60269;52.502;16.732;2022-09-17T10:38:26;18.05;58.04
72320;SHT30;60269;52.502;16.732;2022-09-17T10:42:12;17.52;59.16
72320;SHT30;60269;52.502;16.732;2022-09-17T10:46:08;17.25;60.20
72320;SHT30;60269;52.502;16.732;2022-09-17T11:19:49;16.46;64.20
72320;SHT30;60269;52.502;16.732;2022-09-17T11:24:21;16.89;64.18
72320;SHT30;60269;52.502;16.732;2022-09-17T11:37:08;16.52;68.11
72320;SHT30;60269;52.502;16.732;2022-09-17T11:41:10;16.16;70.49
72320;SHT30;60269;52.502;16.732;2022-09-17T11:49:34;17.42;65.84
72320;SHT30;60269;52.502;16.732;2022-09-17T11:53:43;18.01;63.58
72320;SHT30;60269;52.502;16.732;2022-09-17T11:57:28;17.54;65.06
72320;SHT30;60269;52.502;16.732;2022-09-17T12:01:43;18.92;59.86
72320;SHT30;60269;52.502;16.732;2022-09-17T12:05:33;19.32;58.24
72320;SHT30;60269;52.502;16.732;2022-09-17T12:09:35;19.17;58.01
72320;SHT30;60269;52.502;16.732;2022-09-17T12:17:22;17.69;62.62
72320;SHT30;60269;52.502;16.732;2022-09-17T12:21:04;17.50;62.89
72320;SHT30;60269;52.502;16.732;2022-09-17T12:25:11;17.19;64.62
72320;SHT30;60269;52.502;16.732;2022-09-17T12:29:28;16.88;65.40
72320;SHT30;60269;52.502;16.732;2022-09-17T12:33:39;16.52;64.89
72320;SHT30;60269;52.502;16.732;2022-09-17T12:37:40;15.64;75.57
72320;SHT30;60269;52.502;16.732;2022-09-17T12:45:50;13.93;83.46
72320;SHT30;60269;52.502;16.732;2022-09-17T12:50:01;12.63;91.18
72320;SHT30;60269;52.502;16.732;2022-09-17T13:02:36;14.89;85.34
72320;SHT30;60269;52.502;16.732;2022-09-17T13:19:29;16.60;73.15
72320;SHT30;60269;52.502;16.732;2022-09-17T13:23:44;17.28;68.40
72320;SHT30;60269;52.502;16.732;2022-09-17T13:27:25;17.62;65.84
72320;SHT30;60269;52.502;16.732;2022-09-17T13:43:45;17.70;62.39
72320;SHT30;60269;52.502;16.732;2022-09-17T13:47:27;17.32;64.50
72320;SHT30;60269;52.502;16.732;2022-09-17T13:55:30;17.05;67.99
72320;SHT30;60269;52.502;16.732;2022-09-17T13:59:26;18.15;57.90
72320;SHT30;60269;52.502;16.732;2022-09-17T14:23:53;19.08;53.41
72320;SHT30;60269;52.502;16.732;2022-09-17T14:27:57;19.14;53.12
72320;SHT30;60269;52.502;16.732;2022-09-17T14:31:37;18.60;54.47
72320;SHT30;60269;52.502;16.732;2022-09-17T14:35:40;18.52;55.49
72320;SHT30;60269;52.502;16.732;2022-09-17T14:39:25;18.19;54.00
72320;SHT30;60269;52.502;16.732;2022-09-17T14:43:37;18.49;54.42
72320;SHT30;60269;52.502;16.732;2022-09-17T14:47:19;18.53;54.18
72320;SHT30;60269;52.502;16.732;2022-09-17T14:55:19;18.10;55.68
72320;SHT30;60269;52.502;16.732;2022-09-17T14:59:29;17.93;56.13
72320;SHT30;60269;52.502;16.732;2022-09-17T15:03:21;18.11;56.46
72320;SHT30;60269;52.502;16.732;2022-09-17T15:07:21;17.74;58.12
72320;SHT30;60269;52.502;16.732;2022-09-17T15:11:19;17.70;57.85
72320;SHT30;60269;52.502;16.732;2022-09-17T15:14:57;18.31;56.95
72320;SHT30;60269;52.502;16.732;2022-09-17T15:19:04;18.01;53.91
72320;SHT30;60269;52.502;16.732;2022-09-17T15:22:43;18.72;52.29
72320;SHT30;60269;52.502;16.732;2022-09-17T15:26:39;17.86;55.65
72320;SHT30;60269;52.502;16.732;2022-09-17T15:30:20;18.28;55.14
72320;SHT30;60269;52.502;16.732;2022-09-17T15:34:34;17.40;57.34
72320;SHT30;60269;52.502;16.732;2022-09-17T15:38:28;17.26;57.51
72320;SHT30;60269;52.502;16.732;2022-09-17T15:42:30;17.47;57.83
72320;SHT30;60269;52.502;16.732;2022-09-17T15:46:27;17.40;58.09
72320;SHT30;60269;52.502;16.732;2022-09-17T15:50:31;16.47;62.15
72320;SHT30;60269;52.502;16.732;2022-09-17T15:54:27;15.85;63.36
72320;SHT30;60269;52.502;16.732;2022-09-17T15:58:23;15.41;65.80
72320;SHT30;60269;52.502;16.732;2022-09-17T16:02:02;15.20;66.54
72320;SHT30;60269;52.502;16.732;2022-09-17T16:06:00;14.98;67.27
72320;SHT30;60269;52.502;16.732;2022-09-17T16:09:47;14.90;67.86
72320;SHT30;60269;52.502;16.732;2022-09-17T16:13:40;14.76;68.49
72320;SHT30;60269;52.502;16.732;2022-09-17T16:17:19;14.71;68.27
72320;SHT30;60269;52.502;16.732;2022-09-17T16:21:13;15.07;67.45
72320;SHT30;60269;52.502;16.732;2022-09-17T16:24:52;14.82;68.29
72320;SHT30;60269;52.502;16.732;2022-09-17T16:28:52;14.68;68.42
72320;SHT30;60269;52.502;16.732;2022-09-17T16:32:31;14.57;70.18
72320;SHT30;60269;52.502;16.732;2022-09-17T16:36:23;14.41;69.99
72320;SHT30;60269;52.502;16.732;2022-09-17T16:40:03;14.31;70.16
72320;SHT30;60269;52.502;16.732;2022-09-17T16:44:01;14.20;70.11
72320;SHT30;60269;52.502;16.732;2022-09-17T16:47:40;14.04;69.93
72320;SHT30;60269;52.502;16.732;2022-09-17T16:51:33;13.89;69.38
72320;SHT30;60269;52.502;16.732;2022-09-17T16:55:14;13.77;70.44
72320;SHT30;60269;52.502;16.732;2022-09-17T16:59:13;13.52;71.39
72320;SHT30;60269;52.502;16.732;2022-09-17T17:02:53;13.38;71.73
72320;SHT30;60269;52.502;16.732;2022-09-17T17:06:46;13.31;72.39
72320;SHT30;60269;52.502;16.732;2022-09-17T17:10:24;13.28;73.53
72320;SHT30;60269;52.502;16.732;2022-09-17T17:14:23;13.18;75.11
72320;SHT30;60269;52.502;16.732;2022-09-17T17:18:01;12.73;79.53
72320;SHT30;60269;52.502;16.732;2022-09-17T17:21:53;12.21;83.35
72320;SHT30;60269;52.502;16.732;2022-09-17T17:25:31;11.84;86.15
72320;SHT30;60269;52.502;16.732;2022-09-17T17:29:30;11.57;88.99
72320;SHT30;60269;52.502;16.732;2022-09-17T17:33:29;11.43;89.70
72320;SHT30;60269;52.502;16.732;2022-09-17T17:37:08;11.32;90.58
72320;SHT30;60269;52.502;16.732;2022-09-17T17:41:11;11.24;90.57
72320;SHT30;60269;52.502;16.732;2022-09-17T17:44:56;11.18;91.35
72320;SHT30;60269;52.502;16.732;2022-09-17T17:48:49;11.03;91.80
72320;SHT30;60269;52.502;16.732;2022-09-17T17:52:28;11.01;91.83
72320;SHT30;60269;52.502;16.732;2022-09-17T17:56:19;10.98;92.05
72320;SHT30;60269;52.502;16.732;2022-09-17T18:00:05;11.02;92.01
72320;SHT30;60269;52.502;16.732;2022-09-17T18:03:59;10.98;92.06
72320;SHT30;60269;52.502;16.732;2022-09-17T18:07:38;10.95;91.76
72320;SHT30;60269;52.502;16.732;2022-09-17T18:11:29;10.92;92.26
72320;SHT30;60269;52.502;16.732;2022-09-17T18:15:15;10.88;92.72
72320;SHT30;60269;52.502;16.732;2022-09-17T18:19:09;10.89;92.62
72320;SHT30;60269;52.502;16.732;2022-09-17T18:22:48;10.86;92.50
72320;SHT30;60269;52.502;16.732;2022-09-17T18:26:39;10.78;92.67
72320;SHT30;60269;52.502;16.732;2022-09-17T18:30:25;10.65;93.07
72320;SHT30;60269;52.502;16.732;2022-09-17T18:34:12;10.55;92.61
72320;SHT30;60269;52.502;16.732;2022-09-17T18:37:57;10.64;90.90
72320;SHT30;60269;52.502;16.732;2022-09-17T18:41:37;10.64;90.43
72320;SHT30;60269;52.502;16.732;2022-09-17T18:45:36;10.69;89.44
72320;SHT30;60269;52.502;16.732;2022-09-17T18:49:35;10.74;88.85
72320;SHT30;60269;52.502;16.732;2022-09-17T18:53:36;10.62;89.27
72320;SHT30;60269;52.502;16.732;2022-09-17T18:57:21;10.61;89.36
72320;SHT30;60269;52.502;16.732;2022-09-17T19:01:21;10.40;90.04
72320;SHT30;60269;52.502;16.732;2022-09-17T19:05:21;10.27;90.49
72320;SHT30;60269;52.502;16.732;2022-09-17T19:09:20;10.25;90.69
72320;SHT30;60269;52.502;16.732;2022-09-17T19:12:59;10.20;90.92
72320;SHT30;60269;52.502;16.732;2022-09-17T19:16:58;10.38;90.16
72320;SHT30;60269;52.502;16.732;2022-09-17T19:20:37;10.53;89.15
72320;SHT30;60269;52.502;16.732;2022-09-17T19:24:28;10.64;88.48
72320;SHT30;60269;52.502;16.732;2022-09-17T19:28:07;10.68;87.93
72320;SHT30;60269;52.502;16.732;2022-09-17T19:32:05;10.69;87.81
72320;SHT30;60269;52.502;16.732;2022-09-17T19:35:50;10.62;87.82
72320;SHT30;60269;52.502;16.732;2022-09-17T19:39:35;10.62;87.87
72320;SHT30;60269;52.502;16.732;2022-09-17T19:43:20;10.53;88.35
72320;SHT30;60269;52.502;16.732;2022-09-17T19:47:12;10.41;88.89
72320;SHT30;60269;52.502;16.732;2022-09-17T19:50:54;10.34;88.83
72320;SHT30;60269;52.502;16.732;2022-09-17T19:54:45;10.16;89.87
72320;SHT30;60269;52.502;16.732;2022-09-17T19:58:30;9.99;90.48
72320;SHT30;60269;52.502;16.732;2022-09-17T20:02:22;9.87;90.78
72320;SHT30;60269;52.502;16.732;2022-09-17T20:06:03;9.92;90.58
72320;SHT30;60269;52.502;16.732;2022-09-17T20:09:54;9.83;90.76
72320;SHT30;60269;52.502;16.732;2022-09-17T20:13:39;9.93;89.70
72320;SHT30;60269;52.502;16.732;2022-09-17T20:17:31;9.95;89.07
72320;SHT30;60269;52.502;16.732;2022-09-17T20:21:16;9.85;89.32
72320;SHT30;60269;52.502;16.732;2022-09-17T20:25:08;9.78;89.30
72320;SHT30;60269;52.502;16.732;2022-09-17T20:28:53;9.66;89.48
72320;SHT30;60269;52.502;16.732;2022-09-17T20:32:45;9.55;89.98
72320;SHT30;60269;52.502;16.732;2022-09-17T20:36:27;9.44;90.27
72320;SHT30;60269;52.502;16.732;2022-09-17T20:40:19;9.28;91.03
72320;SHT30;60269;52.502;16.732;2022-09-17T20:44:05;9.10;91.61
72320;SHT30;60269;52.502;16.732;2022-09-17T20:48:00;8.94;92.28
72320;SHT30;60269;52.502;16.732;2022-09-17T20:51:44;8.97;91.57
72320;SHT30;60269;52.502;16.732;2022-09-17T20:55:36;9.11;90.61
72320;SHT30;60269;52.502;16.732;2022-09-17T20:59:29;9.10;90.23
72320;SHT30;60269;52.502;16.732;2022-09-17T21:03:35;9.16;89.65
72320;SHT30;60269;52.502;16.732;2022-09-17T21:07:14;9.04;89.68
72320;SHT30;60269;52.502;16.732;2022-09-17T21:11:06;8.96;89.84
72320;SHT30;60269;52.502;16.732;2022-09-17T21:14:51;8.83;90.06
72320;SHT30;60269;52.502;16.732;2022-09-17T21:18:55;8.70;90.66
72320;SHT30;60269;52.502;16.732;2022-09-17T21:22:54;8.56;91.23
72320;SHT30;60269;52.502;16.732;2022-09-17T21:26:33;8.52;91.37
72320;SHT30;60269;52.502;16.732;2022-09-17T21:30:32;8.50;91.29
72320;SHT30;60269;52.502;16.732;2022-09-17T21:34:12;8.34;91.88
72320;SHT30;60269;52.502;16.732;2022-09-17T21:38:04;8.27;92.03
72320;SHT30;60269;52.502;16.732;2022-09-17T21:41:43;8.15;92.35
72320;SHT30;60269;52.502;16.732;2022-09-17T21:45:42;8.18;91.80
72320;SHT30;60269;52.502;16.732;2022-09-17T21:49:21;8.20;91.29
72320;SHT30;60269;52.502;16.732;2022-09-17T21:53:13;8.17;91.05
72320;SHT30;60269;52.502;16.732;2022-09-17T21:56:52;7.98;91.58
72320;SHT30;60269;52.502;16.732;2022-09-17T22:00:50;7.98;91.14
72320;SHT30;60269;52.502;16.732;2022-09-17T22:04:30;8.01;90.93
72320;SHT30;60269;52.502;16.732;2022-09-17T22:08:21;7.83;91.55
72320;SHT30;60269;52.502;16.732;2022-09-17T22:12:00;7.91;91.20
72320;SHT30;60269;52.502;16.732;2022-09-17T22:15:59;7.80;91.49
72320;SHT30;60269;52.502;16.732;2022-09-17T22:19:45;7.53;92.53
72320;SHT30;60269;52.502;16.732;2022-09-17T22:23:31;7.41;93.02
72320;SHT30;60269;52.502;16.732;2022-09-17T22:27:16;7.36;92.99
72320;SHT30;60269;52.502;16.732;2022-09-17T22:31:10;7.45;92.32
72320;SHT30;60269;52.502;16.732;2022-09-17T22:34:56;7.39;92.24
72320;SHT30;60269;52.502;16.732;2022-09-17T22:38:43;7.33;92.69
72320;SHT30;60269;52.502;16.732;2022-09-17T22:42:29;7.21;92.94
72320;SHT30;60269;52.502;16.732;2022-09-17T22:46:23;7.32;92.78
72320;SHT30;60269;52.502;16.732;2022-09-17T22:50:09;7.18;92.93
72320;SHT30;60269;52.502;16.732;2022-09-17T22:53:54;7.29;92.35
72320;SHT30;60269;52.502;16.732;2022-09-17T22:57:40;7.23;92.35
72320;SHT30;60269;52.502;16.732;2022-09-17T23:01:33;7.12;92.57
72320;SHT30;60269;52.502;16.732;2022-09-17T23:05:13;7.00;92.94
72320;SHT30;60269;52.502;16.732;2022-09-17T23:09:05;6.95;92.95
72320;SHT30;60269;52.502;16.732;2022-09-17T23:12:50;6.83;93.23
72320;SHT30;60269;52.502;16.732;2022-09-17T23:16:45;6.74;93.50
72320;SHT30;60269;52.502;16.732;2022-09-17T23:20:24;6.63;93.77
72320;SHT30;60269;52.502;16.732;2022-09-17T23:24:18;6.66;93.62
72320;SHT30;60269;52.502;16.732;2022-09-17T23:28:04;6.63;93.53
72320;SHT30;60269;52.502;16.732;2022-09-17T23:31:55;6.67;93.09
72320;SHT30;60269;52.502;16.732;2022-09-17T23:35:34;6.57;93.33
72320;SHT30;60269;52.502;16.732;2022-09-17T23:39:25;6.43;93.77
72320;SHT30;60269;52.502;16.732;2022-09-17T23:43:11;6.43;93.96
72320;SHT30;60269;52.502;16.732;2022-09-17T23:47:03;6.32;94.13
72320;SHT30;60269;52.502;16.732;2022-09-17T23:50:43;6.30;94.43
72320;SHT30;60269;52.502;16.732;2022-09-17T23:54:41;6.16;94.38
72320;SHT30;60269;52.502;16.732;2022-09-17T23:58:20;6.23;94.67
